createdAt,value
2023-01-21T00:01:51.891Z,2.33
2023-01-21T00:09:23.673Z,2.67
2023-01-21T00:16:55.522Z,2.70
2023-01-21T00:24:27.339Z,2.80
2023-01-21T00:31:59.172Z,2.92
2023-01-21T00:39:30.985Z,2.28
2023-01-21T00:47:02.756Z,2.50
2023-01-21T00:54:34.582Z,2.22
2023-01-21T01:02:06.504Z,2.42
2023-01-21T01:09:38.263Z,2.25
2023-01-21T01:17:10.060Z,1.90
2023-01-21T01:24:41.786Z,1.83
2023-01-21T01:32:13.542Z,2.35
2023-01-21T01:39:45.477Z,2.10
2023-01-21T01:47:17.231Z,1.85
2023-01-21T01:54:51.903Z,2.55
2023-01-21T02:02:23.693Z,1.65
2023-01-21T02:09:55.459Z,2.25
2023-01-21T02:17:58.611Z,2.13
2023-01-21T02:25:55.730Z,2.08
2023-01-21T02:33:42.505Z,2.30
2023-01-21T02:41:57.464Z,2.50
2023-01-21T02:49:48.331Z,2.25
2023-01-21T02:57:29.566Z,2.70
2023-01-21T03:05:55.038Z,2.17
2023-01-21T03:13:44.985Z,2.50
2023-01-21T03:21:19.605Z,2.42
2023-01-21T03:28:53.136Z,2.15
2023-01-21T03:36:49.495Z,2.70
2023-01-21T03:44:21.320Z,2.45
2023-01-21T03:51:54.911Z,2.60
2023-01-21T03:59:26.633Z,2.72
2023-01-21T04:06:58.371Z,2.80
2023-01-21T04:14:30.196Z,2.50
2023-01-21T04:22:01.929Z,2.80
2023-01-21T04:29:33.695Z,2.22
2023-01-21T04:37:05.445Z,2.90
2023-01-21T04:44:37.184Z,3.22
2023-01-21T04:52:09.331Z,2.92
2023-01-21T04:59:41.117Z,2.80
2023-01-21T05:07:13.179Z,2.53
2023-01-21T05:14:44.979Z,2.20
2023-01-21T05:22:17.373Z,2.95
2023-01-21T05:29:49.202Z,2.53
2023-01-21T05:37:20.975Z,2.40
2023-01-21T05:44:52.708Z,2.25
2023-01-21T05:52:24.425Z,3.17
2023-01-21T05:59:56.198Z,3.33
2023-01-21T06:07:27.881Z,3.80
2023-01-21T06:15:00.396Z,5.53
2023-01-21T06:22:32.188Z,10.27
2023-01-21T06:30:08.096Z,10.23
2023-01-21T06:37:39.860Z,7.93
2023-01-21T06:45:11.660Z,7.03
2023-01-21T06:52:44.590Z,11.35
2023-01-21T07:00:17.420Z,8.05
2023-01-21T07:07:49.374Z,9.23
2023-01-21T07:15:21.244Z,8.80
2023-01-21T07:22:53.042Z,13.20
2023-01-21T07:30:24.821Z,11.77
2023-01-21T07:37:56.538Z,13.33
2023-01-21T07:53:45.128Z,8.90
2023-01-21T08:06:52.882Z,10.07
2023-01-21T08:16:54.616Z,9.27
2023-01-21T08:27:00.307Z,8.55
2023-01-21T08:37:02.099Z,8.07
2023-01-21T08:47:03.980Z,8.18
2023-01-21T08:57:05.728Z,7.63
2023-01-21T09:07:07.690Z,8.13
2023-01-21T09:17:10.662Z,17.02
2023-01-21T09:27:12.427Z,27.02
2023-01-21T09:37:14.177Z,26.77
2023-01-21T09:47:32.203Z,25.98
2023-01-21T09:58:07.997Z,24.35
2023-01-21T10:08:43.504Z,25.05
2023-01-21T10:18:46.951Z,22.80
2023-01-21T10:28:51.320Z,23.42
2023-01-21T10:39:23.334Z,24.40
2023-01-21T10:50:13.524Z,21.38
2023-01-21T11:00:31.265Z,20.30
2023-01-21T11:10:33.080Z,20.55
2023-01-21T11:20:41.738Z,18.48
2023-01-21T11:30:50.700Z,18.60
2023-01-21T11:41:15.165Z,17.98
2023-01-21T11:51:17.864Z,18.23
2023-01-21T12:01:21.327Z,17.15
2023-01-21T12:11:24.784Z,14.88
2023-01-21T12:21:45.208Z,16.27
2023-01-21T12:32:04.229Z,13.35
2023-01-21T12:42:27.419Z,13.93
2023-01-21T12:52:42.273Z,12.32
2023-01-21T13:03:26.658Z,11.63
2023-01-21T13:13:37.513Z,10.32
2023-01-21T13:24:32.033Z,10.02
2023-01-21T13:35:01.419Z,9.77
2023-01-21T13:45:27.089Z,7.75
2023-01-21T13:56:05.162Z,9.45
2023-01-21T14:06:13.281Z,7.68
2023-01-21T14:16:38.903Z,7.28
2023-01-21T14:27:34.963Z,6.18
2023-01-21T14:37:46.101Z,7.38
2023-01-21T14:47:55.050Z,5.75
2023-01-21T14:57:57.520Z,4.78
2023-01-21T15:08:19.810Z,4.78
2023-01-21T15:18:39.287Z,4.28
2023-01-21T15:28:52.051Z,4.40
2023-01-21T15:39:00.762Z,4.13
2023-01-21T15:49:16.340Z,4.60
2023-01-21T15:59:38.483Z,3.38
2023-01-21T16:10:24.085Z,3.88
2023-01-21T16:20:25.834Z,3.28
2023-01-21T16:30:31.695Z,4.13
2023-01-21T16:40:33.668Z,3.67
2023-01-21T16:50:35.588Z,3.50
2023-01-21T17:00:37.369Z,3.58
2023-01-21T17:10:47.138Z,3.92
2023-01-21T17:20:51.485Z,4.10
2023-01-21T17:31:15.434Z,11.48
2023-01-21T17:41:24.206Z,14.38
2023-01-21T17:51:30.160Z,10.80
2023-01-21T18:01:32.137Z,12.07
2023-01-21T18:11:34.018Z,11.32
2023-01-21T18:21:35.851Z,9.35
2023-01-21T18:31:38.246Z,9.95
2023-01-21T18:41:40.276Z,10.48
2023-01-21T18:51:42.327Z,9.52
2023-01-21T19:01:44.352Z,9.93
2023-01-21T19:11:46.191Z,9.23
2023-01-21T19:21:48.036Z,9.70
2023-01-21T19:31:49.933Z,9.90
2023-01-21T19:42:07.051Z,9.88
2023-01-21T19:52:13.350Z,10.80
2023-01-21T20:02:15.180Z,11.02
2023-01-21T20:12:17.618Z,9.95
2023-01-21T20:22:19.349Z,10.35
2023-01-21T20:32:21.200Z,9.85
2023-01-21T20:42:23.140Z,8.88
2023-01-21T20:52:24.884Z,9.18
2023-01-21T21:02:26.639Z,10.30
2023-01-21T21:12:28.407Z,8.70
2023-01-21T21:22:30.150Z,7.28
2023-01-21T21:32:31.874Z,7.85
2023-01-21T21:42:52.470Z,7.15
2023-01-21T21:52:54.257Z,6.78
2023-01-21T22:03:02.506Z,6.78
2023-01-21T22:13:04.276Z,5.82
2023-01-21T22:23:06.067Z,6.03
2023-01-21T22:33:07.990Z,5.97
2023-01-21T22:43:10.265Z,5.45
2023-01-21T22:53:12.535Z,5.40
2023-01-21T23:03:14.304Z,4.82
2023-01-21T23:13:16.223Z,4.57
2023-01-21T23:23:18.079Z,4.70
2023-01-21T23:33:19.853Z,4.53
2023-01-21T23:43:26.588Z,4.28
2023-01-21T23:53:28.571Z,4.78
